Time;durP1;ratioP1;P1;durP2;ratioP2;P2;SDS_P1;SDS_P2;PMS_P1;PMS_P2;Temp;Humidity;BMP_temperature;BMP_pressure;BME280_temperature;BME280_humidity;BME280_pressure;Samples;Min_cycle;Max_cycle;Signal;HPM_P1;HPM_P2
2024/03/01 00:00:17;;;;;;;66.82;30.75;;;3.60;99.90;;;;;;5011929;28;20057;-68
2024/03/01 00:02:42;;;;;;;60.78;29.38;;;3.60;99.90;;;;;;5012941;28;20487;-69
2024/03/01 00:05:08;;;;;;;64.45;29.52;;;3.60;99.90;;;;;;5011490;28;20022;-69
2024/03/01 00:07:34;;;;;;;60.55;29.30;;;3.60;99.90;;;;;;5012841;28;20097;-69
2024/03/01 00:09:59;;;;;;;66.30;30.60;;;3.60;99.90;;;;;;5012107;28;20022;-69
2024/03/01 00:12:25;;;;;;;60.53;29.17;;;3.60;99.90;;;;;;5012087;28;20029;-69
2024/03/01 00:14:50;;;;;;;63.78;29.83;;;3.50;99.90;;;;;;5009419;28;20066;-69
2024/03/01 00:17:16;;;;;;;58.97;28.77;;;3.50;99.90;;;;;;5011871;28;20025;-69
2024/03/01 00:19:42;;;;;;;58.65;26.60;;;3.50;99.90;;;;;;5012146;28;20080;-69
2024/03/01 00:22:08;;;;;;;61.83;29.23;;;3.50;99.90;;;;;;4999456;28;20360;-69
2024/03/01 00:24:33;;;;;;;66.15;30.27;;;3.50;99.90;;;;;;5001216;28;20021;-70
2024/03/01 00:26:59;;;;;;;68.13;31.75;;;3.50;99.90;;;;;;5011610;28;20034;-70
2024/03/01 00:29:24;;;;;;;69.07;32.13;;;3.60;99.90;;;;;;5011862;28;20033;-69
2024/03/01 00:31:50;;;;;;;67.50;30.83;;;3.50;99.90;;;;;;5012345;28;20021;-69
2024/03/01 00:34:15;;;;;;;63.30;30.23;;;3.60;99.90;;;;;;5009168;28;20057;-69
2024/03/01 00:36:41;;;;;;;66.18;31.58;;;3.60;99.90;;;;;;5012856;28;20046;-69
2024/03/01 00:39:07;;;;;;;63.42;30.42;;;3.60;99.90;;;;;;5008627;28;20482;-69
2024/03/01 00:41:33;;;;;;;65.07;30.85;;;3.70;99.90;;;;;;5011874;28;20028;-69
2024/03/01 00:43:58;;;;;;;68.97;31.45;;;3.80;99.90;;;;;;5012260;28;20026;-70
2024/03/01 00:46:24;;;;;;;65.75;30.05;;;3.90;99.90;;;;;;5011007;28;20463;-70
2024/03/01 00:48:53;;;;;;;63.67;29.95;;;3.90;99.90;;;;;;5011958;28;20026;-70
2024/03/01 00:51:22;;;;;;;61.58;30.40;;;3.90;99.90;;;;;;5010371;28;20030;-70
2024/03/01 00:53:49;;;;;;;65.40;30.38;;;3.90;99.90;;;;;;5011917;28;20125;-69
2024/03/01 00:56:15;;;;;;;66.57;31.15;;;3.90;99.90;;;;;;5009431;28;20018;-70
2024/03/01 00:58:41;;;;;;;59.20;29.25;;;3.90;99.90;;;;;;5011977;28;20513;-70
2024/03/01 01:01:06;;;;;;;60.40;29.08;;;3.90;99.90;;;;;;5010372;28;20529;-69
2024/03/01 01:03:32;;;;;;;66.53;31.50;;;3.90;99.90;;;;;;5011695;28;20100;-69
2024/03/01 01:05:58;;;;;;;68.30;30.42;;;3.90;99.90;;;;;;5011087;28;20033;-70
2024/03/01 01:08:24;;;;;;;64.82;29.38;;;3.80;99.90;;;;;;5002014;28;20045;-69
2024/03/01 01:10:50;;;;;;;60.97;28.48;;;3.80;99.90;;;;;;5010564;28;20414;-69
2024/03/01 01:13:15;;;;;;;69.70;31.48;;;3.70;99.90;;;;;;5009201;28;20026;-70
2024/03/01 01:15:41;;;;;;;69.70;32.85;;;3.70;99.90;;;;;;5003435;28;20077;-70
2024/03/01 01:18:07;;;;;;;70.93;32.75;;;3.70;99.90;;;;;;5010607;28;20030;-69
2024/03/01 01:20:32;;;;;;;72.50;34.65;;;3.80;99.90;;;;;;5009068;28;20030;-69
2024/03/01 01:22:58;;;;;;;75.28;34.55;;;3.90;99.90;;;;;;5011494;28;20075;-70
2024/03/01 01:25:23;;;;;;;69.82;33.53;;;4.00;99.90;;;;;;5010171;28;20469;-69
2024/03/01 01:27:49;;;;;;;70.28;33.58;;;4.10;99.90;;;;;;5011177;28;20022;-70
2024/03/01 01:30:15;;;;;;;69.90;33.08;;;4.20;99.90;;;;;;5010099;28;20022;-69
2024/03/01 01:32:40;;;;;;;68.55;32.33;;;4.20;99.90;;;;;;5011568;28;20445;-70
2024/03/01 01:35:06;;;;;;;67.35;32.15;;;4.20;99.90;;;;;;5009703;28;20052;-69
2024/03/01 01:37:32;;;;;;;66.20;31.95;;;4.20;99.90;;;;;;5010215;28;20057;-70
2024/03/01 01:39:58;;;;;;;58.30;29.80;;;4.20;99.90;;;;;;5008333;28;20100;-70
2024/03/01 01:42:23;;;;;;;58.97;29.23;;;4.10;99.90;;;;;;5010362;28;20096;-74
2024/03/01 01:44:49;;;;;;;60.15;28.50;;;4.10;99.90;;;;;;5011050;28;20159;-69
2024/03/01 01:47:15;;;;;;;64.45;30.17;;;4.10;99.90;;;;;;5008084;28;20108;-70
2024/03/01 01:49:41;;;;;;;64.22;32.17;;;4.10;99.90;;;;;;5010432;28;20030;-70
2024/03/01 01:52:32;;;;;;;65.47;32.05;;;4.10;99.90;;;;;;5010155;28;20022;-68
2024/03/01 01:54:57;;;;;;;63.30;30.90;;;4.00;99.90;;;;;;4998352;28;20037;-69
2024/03/01 01:57:23;;;;;;;64.25;30.95;;;4.00;99.90;;;;;;5010473;28;20026;-69
2024/03/01 01:59:50;;;;;;;60.70;30.15;;;4.10;99.90;;;;;;5010490;28;20026;-69
2024/03/01 02:02:16;;;;;;;68.53;32.35;;;4.10;99.90;;;;;;5009979;28;20033;-69
2024/03/01 02:04:42;;;;;;;61.65;31.13;;;4.20;99.90;;;;;;5007866;28;20018;-69
2024/03/01 02:07:07;;;;;;;71.65;33.47;;;4.20;99.90;;;;;;5009642;28;20041;-69
2024/03/01 02:09:33;;;;;;;65.22;32.38;;;4.30;99.90;;;;;;5010046;28;20022;-69
2024/03/01 02:11:59;;;;;;;71.15;30.40;;;4.30;99.90;;;;;;5009647;28;20371;-69
2024/03/01 02:14:24;;;;;;;66.88;31.38;;;4.30;99.90;;;;;;5008291;28;20042;-69
2024/03/01 02:16:50;;;;;;;61.15;30.17;;;4.30;99.90;;;;;;5010534;28;20021;-70
2024/03/01 02:19:18;;;;;;;66.18;31.33;;;4.30;99.90;;;;;;5009346;28;20026;-69
2024/03/01 02:22:07;;;;;;;55.50;28.70;;;4.20;99.90;;;;;;5009444;28;20061;-69
2024/03/01 02:24:33;;;;;;;58.67;28.93;;;4.20;99.90;;;;;;5010092;28;20026;-69
2024/03/01 02:26:59;;;;;;;64.22;30.30;;;4.20;99.90;;;;;;5010498;28;20344;-69
2024/03/01 02:29:24;;;;;;;65.85;31.67;;;4.20;99.90;;;;;;5009067;28;20045;-69
2024/03/01 02:31:50;;;;;;;60.08;28.92;;;4.20;99.90;;;;;;5010419;28;20359;-69
2024/03/01 02:34:16;;;;;;;66.20;31.90;;;4.20;99.90;;;;;;5009001;28;20354;-69
2024/03/01 02:36:42;;;;;;;63.20;30.67;;;4.20;99.90;;;;;;5010605;28;20054;-69
2024/03/01 02:39:16;;;;;;;59.33;28.67;;;4.20;99.90;;;;;;5006846;28;20533;-68
2024/03/01 02:41:46;;;;;;;58.70;27.55;;;4.10;99.90;;;;;;5009607;28;20371;-69
2024/03/01 02:44:12;;;;;;;65.03;30.70;;;4.00;99.90;;;;;;5009546;28;20026;-69
2024/03/01 02:46:38;;;;;;;64.13;30.27;;;3.90;99.90;;;;;;5007952;28;20367;-69
2024/03/01 02:49:03;;;;;;;62.45;28.73;;;3.90;99.90;;;;;;5011193;28;20029;-69
2024/03/01 02:51:29;;;;;;;58.42;29.98;;;3.90;99.90;;;;;;5012814;28;20038;-69
2024/03/01 02:53:55;;;;;;;63.00;28.73;;;3.90;99.90;;;;;;5014135;28;20053;-69
2024/03/01 02:56:21;;;;;;;62.50;30.02;;;3.90;99.90;;;;;;5011462;28;20026;-68
2024/03/01 02:58:46;;;;;;;57.42;29.30;;;3.90;99.90;;;;;;5014008;28;20109;-69
2024/03/01 03:01:12;;;;;;;61.28;29.95;;;3.90;99.90;;;;;;5012422;28;20083;-68
2024/03/01 03:03:37;;;;;;;65.93;31.15;;;4.00;99.90;;;;;;5014288;28;20030;-68
2024/03/01 03:06:03;;;;;;;62.70;29.65;;;4.00;99.90;;;;;;5013400;28;20093;-68
2024/03/01 03:08:29;;;;;;;62.38;30.23;;;4.00;99.90;;;;;;5013393;28;20151;-69
2024/03/01 03:10:54;;;;;;;62.33;30.23;;;4.10;99.90;;;;;;5013197;28;20053;-68
2024/03/01 03:13:20;;;;;;;56.08;28.30;;;4.10;99.90;;;;;;5011147;28;20086;-68
2024/03/01 03:15:47;;;;;;;57.80;27.90;;;4.10;99.90;;;;;;5013195;28;20048;-68
2024/03/01 03:18:13;;;;;;;59.63;29.80;;;4.10;99.90;;;;;;5013120;28;20018;-68
2024/03/01 03:20:39;;;;;;;58.80;30.38;;;4.10;99.90;;;;;;5009673;28;20061;-69
2024/03/01 03:23:05;;;;;;;57.95;29.48;;;4.10;99.90;;;;;;5005257;28;20111;-68
2024/03/01 03:25:31;;;;;;;65.03;30.58;;;4.10;99.90;;;;;;5013124;28;20084;-69
2024/03/01 03:27:56;;;;;;;68.18;32.63;;;4.10;99.90;;;;;;5013884;28;20475;-68
2024/03/01 03:30:22;;;;;;;57.15;29.20;;;4.20;99.90;;;;;;5012177;28;20025;-69
2024/03/01 03:32:48;;;;;;;54.38;29.15;;;4.30;99.90;;;;;;5013251;28;20030;-69
2024/03/01 03:35:13;;;;;;;64.72;30.25;;;4.30;99.90;;;;;;5012489;28;20100;-71
2024/03/01 03:37:39;;;;;;;60.17;30.02;;;4.40;99.90;;;;;;5012104;28;20026;-70
2024/03/01 03:40:15;;;;;;;59.50;30.08;;;4.40;99.90;;;;;;5010166;28;20026;-68
2024/03/01 03:42:41;;;;;;;63.78;30.60;;;4.50;99.90;;;;;;5007212;28;20360;-69
2024/03/01 03:45:08;;;;;;;57.22;29.92;;;4.50;99.90;;;;;;4997739;28;20396;-68
2024/03/01 03:47:34;;;;;;;58.70;29.40;;;4.50;99.90;;;;;;5005474;28;20076;-69
2024/03/01 03:49:59;;;;;;;62.47;30.25;;;4.50;99.90;;;;;;5012382;28;20463;-69
2024/03/01 03:52:25;;;;;;;58.05;28.30;;;4.60;99.90;;;;;;5011922;28;20198;-69
2024/03/01 03:54:51;;;;;;;53.70;27.90;;;4.50;99.90;;;;;;5011925;28;20080;-68
2024/03/01 03:57:16;;;;;;;55.22;28.00;;;4.50;99.90;;;;;;5012496;28;20052;-68
2024/03/01 03:59:42;;;;;;;54.35;27.10;;;4.50;99.90;;;;;;5012953;28;20061;-69
2024/03/01 04:02:07;;;;;;;51.67;27.83;;;4.50;99.90;;;;;;5011382;28;20030;-68
2024/03/01 04:04:33;;;;;;;57.88;28.13;;;4.50;99.90;;;;;;4999898;28;20026;-68
2024/03/01 04:06:59;;;;;;;60.28;28.95;;;4.40;99.90;;;;;;5012568;28;20026;-69
2024/03/01 04:09:25;;;;;;;58.45;28.00;;;4.40;99.90;;;;;;5011712;28;20130;-68
2024/03/01 04:11:50;;;;;;;61.58;30.15;;;4.50;99.90;;;;;;5013133;28;20218;-71
2024/03/01 04:14:16;;;;;;;60.20;28.73;;;4.50;99.90;;;;;;5012008;28;20124;-70
2024/03/01 04:16:42;;;;;;;57.22;28.42;;;4.50;99.90;;;;;;5011585;28;20099;-68
2024/03/01 04:19:08;;;;;;;60.30;29.27;;;4.60;99.90;;;;;;5011796;28;20026;-70
2024/03/01 04:21:36;;;;;;;64.47;30.60;;;4.70;99.90;;;;;;5001706;28;20375;-70
2024/03/01 04:24:12;;;;;;;60.78;30.90;;;4.70;99.90;;;;;;5012009;28;20177;-69
2024/03/01 04:26:38;;;;;;;59.25;30.30;;;4.90;99.90;;;;;;5006959;28;20041;-70
2024/03/01 04:29:05;;;;;;;60.47;29.63;;;5.00;99.90;;;;;;5015110;28;20031;-71
2024/03/01 04:31:31;;;;;;;56.47;29.52;;;4.90;99.90;;;;;;5015121;28;20022;-71
2024/03/01 04:33:57;;;;;;;50.20;27.17;;;4.80;99.90;;;;;;5016559;28;20364;-69
2024/03/01 04:36:22;;;;;;;56.75;28.40;;;4.70;99.90;;;;;;5015173;28;20022;-69
2024/03/01 04:38:48;;;;;;;61.35;30.73;;;4.70;99.90;;;;;;5012277;28;20018;-69
2024/03/01 04:41:18;;;;;;;62.47;30.10;;;4.70;99.90;;;;;;5011593;28;20033;-70
2024/03/01 04:43:44;;;;;;;60.08;30.80;;;4.70;99.90;;;;;;5013230;28;20108;-68
2024/03/01 04:46:10;;;;;;;56.90;29.98;;;4.60;99.90;;;;;;5009724;28;20135;-69
2024/03/01 04:48:36;;;;;;;50.63;26.27;;;4.70;99.90;;;;;;5017466;28;20451;-69
2024/03/01 04:51:07;;;;;;;54.65;27.35;;;4.60;99.90;;;;;;5012093;28;20026;-69
2024/03/01 04:53:33;;;;;;;57.10;27.45;;;4.50;99.90;;;;;;5011789;28;20038;-69
2024/03/01 04:55:58;;;;;;;57.28;28.15;;;4.60;99.90;;;;;;5011395;28;20105;-69
2024/03/01 04:58:24;;;;;;;59.15;30.58;;;4.50;99.90;;;;;;5011563;28;20190;-70
2024/03/01 05:00:49;;;;;;;56.67;28.33;;;4.50;99.90;;;;;;5011531;28;20029;-69
2024/03/01 05:03:15;;;;;;;60.38;30.52;;;4.60;99.90;;;;;;5011675;28;20375;-69
2024/03/01 05:05:40;;;;;;;55.10;27.70;;;4.60;99.90;;;;;;5009391;28;20105;-69
2024/03/01 05:08:09;;;;;;;56.78;27.02;;;4.60;99.90;;;;;;5011331;28;20479;-68
2024/03/01 05:10:34;;;;;;;63.78;31.85;;;4.50;99.90;;;;;;5006364;28;20399;-70
2024/03/01 05:13:00;;;;;;;58.03;28.80;;;4.50;99.90;;;;;;5010842;28;20022;-70
2024/03/01 05:15:26;;;;;;;61.03;29.45;;;4.40;99.90;;;;;;5010601;28;20037;-68
2024/03/01 05:17:51;;;;;;;63.00;30.70;;;4.50;99.90;;;;;;5005798;28;20025;-69
2024/03/01 05:20:19;;;;;;;60.30;29.80;;;4.50;99.90;;;;;;5008166;28;20553;-70
2024/03/01 05:22:45;;;;;;;56.90;28.08;;;4.40;99.90;;;;;;5008746;28;20079;-69
2024/03/01 05:25:17;;;;;;;51.55;27.38;;;4.40;99.90;;;;;;5010091;28;20026;-69
2024/03/01 05:27:48;;;;;;;51.80;26.42;;;4.40;99.90;;;;;;5011424;28;20025;-70
2024/03/01 05:30:18;;;;;;;65.88;32.42;;;4.40;99.90;;;;;;5010046;28;20034;-69
2024/03/01 05:32:44;;;;;;;60.03;31.05;;;4.50;99.90;;;;;;5010980;28;20025;-69
2024/03/01 05:35:11;;;;;;;65.30;32.10;;;4.50;99.90;;;;;;5009685;28;20025;-69
2024/03/01 05:37:37;;;;;;;56.60;30.10;;;4.50;99.90;;;;;;5011278;28;20101;-69
2024/03/01 05:40:05;;;;;;;58.88;29.30;;;4.60;99.90;;;;;;5007682;28;20156;-69
2024/03/01 05:42:30;;;;;;;59.15;30.27;;;4.50;99.90;;;;;;5010426;28;20100;-70
2024/03/01 05:44:56;;;;;;;59.58;29.88;;;4.60;99.90;;;;;;5011194;28;20438;-69
2024/03/01 05:47:22;;;;;;;58.00;30.55;;;4.60;99.90;;;;;;5011006;28;20350;-69
2024/03/01 05:49:48;;;;;;;60.92;30.10;;;4.60;99.90;;;;;;5016672;28;20026;-69
2024/03/01 05:52:14;;;;;;;62.58;31.17;;;4.60;99.90;;;;;;5015201;28;20028;-70
2024/03/01 05:54:40;;;;;;;59.80;27.85;;;4.60;99.90;;;;;;5007843;28;20710;-69
2024/03/01 05:57:06;;;;;;;54.05;28.88;;;4.70;99.90;;;;;;5015476;28;20030;-68
2024/03/01 05:59:32;;;;;;;59.78;30.20;;;4.70;99.90;;;;;;5010824;28;20037;-70
2024/03/01 06:01:58;;;;;;;66.32;30.00;;;4.60;99.90;;;;;;5011193;28;20030;-70
2024/03/01 06:04:23;;;;;;;60.33;30.35;;;4.60;99.90;;;;;;5007120;28;20033;-70
2024/03/01 06:06:49;;;;;;;61.88;31.30;;;4.60;99.90;;;;;;5010689;28;20030;-70
2024/03/01 06:09:16;;;;;;;59.97;29.83;;;4.60;99.90;;;;;;5009315;28;20033;-71
2024/03/01 06:11:42;;;;;;;63.83;30.80;;;4.60;99.90;;;;;;5010667;28;20023;-70
2024/03/01 06:14:07;;;;;;;66.97;31.98;;;4.60;99.90;;;;;;5008540;28;20083;-70
2024/03/01 06:16:33;;;;;;;59.53;30.38;;;4.60;99.90;;;;;;5017793;28;20049;-70
2024/03/01 06:18:59;;;;;;;65.75;31.58;;;4.60;99.90;;;;;;5021529;28;20467;-71
2024/03/01 06:21:25;;;;;;;60.25;30.33;;;4.60;99.90;;;;;;5023353;28;20361;-71
2024/03/01 06:23:51;;;;;;;56.15;29.90;;;4.60;99.90;;;;;;5013257;28;20037;-70
2024/03/01 06:26:17;;;;;;;59.10;30.42;;;4.60;99.90;;;;;;5009555;28;20033;-71
2024/03/01 06:28:43;;;;;;;57.28;30.00;;;4.50;99.90;;;;;;5010473;28;20014;-70
2024/03/01 06:31:09;;;;;;;59.03;31.23;;;4.60;99.90;;;;;;5009321;28;20026;-70
2024/03/01 06:33:34;;;;;;;62.97;30.50;;;4.60;99.90;;;;;;5010436;28;20379;-70
2024/03/01 06:36:01;;;;;;;62.72;29.70;;;4.60;99.90;;;;;;5004980;28;20026;-70
2024/03/01 06:38:26;;;;;;;55.13;28.02;;;4.70;99.90;;;;;;5006205;28;20082;-70
2024/03/01 06:40:52;;;;;;;59.63;31.42;;;4.70;99.90;;;;;;5008973;28;20388;-70
2024/03/01 06:43:18;;;;;;;59.80;28.02;;;4.70;99.90;;;;;;5009973;28;20034;-70
2024/03/01 06:45:44;;;;;;;60.03;28.95;;;4.60;99.90;;;;;;5010111;28;20029;-70
2024/03/01 06:48:11;;;;;;;62.75;29.33;;;4.70;99.90;;;;;;5010175;28;20110;-69
2024/03/01 06:50:37;;;;;;;59.03;27.67;;;4.70;99.90;;;;;;5000931;28;20034;-68
2024/03/01 06:53:02;;;;;;;58.00;28.98;;;4.70;99.90;;;;;;5009909;28;20049;-69
2024/03/01 06:55:28;;;;;;;61.35;30.13;;;4.80;99.90;;;;;;5008186;28;20293;-70
2024/03/01 06:57:54;;;;;;;59.97;29.33;;;4.80;99.90;;;;;;5009637;28;20053;-69
2024/03/01 07:00:20;;;;;;;58.55;28.48;;;4.80;99.90;;;;;;5008613;28;20030;-69
2024/03/01 07:02:46;;;;;;;49.85;26.40;;;4.70;99.90;;;;;;5010191;28;20033;-69
2024/03/01 07:05:12;;;;;;;56.53;27.85;;;4.70;99.90;;;;;;5007675;28;20526;-68
2024/03/01 07:07:38;;;;;;;55.15;28.40;;;4.70;99.90;;;;;;5010556;28;20038;-69
2024/03/01 07:10:07;;;;;;;55.65;28.13;;;4.80;99.90;;;;;;5009786;28;20029;-69
2024/03/01 07:12:33;;;;;;;58.08;30.25;;;4.80;99.90;;;;;;5006520;28;20045;-70
2024/03/01 07:14:58;;;;;;;61.88;29.20;;;4.80;99.90;;;;;;5009108;28;20364;-70
2024/03/01 07:17:24;;;;;;;57.13;29.05;;;4.90;99.90;;;;;;5008769;28;20038;-70
2024/03/01 07:19:51;;;;;;;58.47;29.17;;;5.00;99.90;;;;;;5009425;28;20029;-70
2024/03/01 07:22:17;;;;;;;55.33;28.58;;;5.10;99.90;;;;;;5009101;28;20037;-70
2024/03/01 07:24:42;;;;;;;53.85;27.85;;;5.20;99.90;;;;;;5008175;28;20351;-70
2024/03/01 07:27:08;;;;;;;53.85;26.55;;;5.40;99.90;;;;;;5009262;28;20474;-70
2024/03/01 07:29:33;;;;;;;56.83;28.52;;;5.50;99.90;;;;;;5009075;28;20028;-73
2024/03/01 07:31:59;;;;;;;54.15;29.13;;;5.70;99.90;;;;;;5009375;28;20289;-71
2024/03/01 07:34:25;;;;;;;48.67;26.48;;;5.70;99.90;;;;;;5008481;28;20448;-72
2024/03/01 07:36:50;;;;;;;56.70;28.95;;;5.70;99.90;;;;;;5009648;28;20113;-69
2024/03/01 07:39:16;;;;;;;51.63;27.58;;;5.80;99.90;;;;;;5012026;28;20030;-70
2024/03/01 07:41:41;;;;;;;49.50;26.52;;;5.90;99.90;;;;;;5015084;28;20022;-71
2024/03/01 07:44:07;;;;;;;59.25;28.42;;;6.00;99.90;;;;;;5012798;28;20502;-69
2024/03/01 07:46:33;;;;;;;51.67;26.45;;;6.00;99.90;;;;;;5011337;28;20021;-70
2024/03/01 07:49:00;;;;;;;47.53;26.52;;;6.10;99.90;;;;;;5013164;28;20022;-71
2024/03/01 07:51:25;;;;;;;50.53;26.63;;;6.20;99.90;;;;;;5005951;28;20097;-70
2024/03/01 07:53:51;;;;;;;49.83;27.55;;;6.40;99.90;;;;;;4999051;28;20050;-70
2024/03/01 07:56:23;;;;;;;53.00;27.55;;;6.50;99.90;;;;;;5004658;28;20038;-70
2024/03/01 07:59:01;;;;;;;49.10;27.48;;;6.70;99.90;;;;;;5018470;28;20383;-70
2024/03/01 08:01:27;;;;;;;51.53;27.15;;;6.80;99.90;;;;;;5010221;28;20049;-70
2024/03/01 08:03:52;;;;;;;50.08;26.80;;;6.90;99.90;;;;;;5008959;28;20021;-69
2024/03/01 08:06:18;;;;;;;50.50;28.17;;;7.00;99.90;;;;;;5006935;28;20026;-72
2024/03/01 08:08:44;;;;;;;49.42;26.60;;;7.10;99.90;;;;;;5009520;28;20208;-72
2024/03/01 08:11:11;;;;;;;53.38;27.38;;;7.20;99.90;;;;;;5009380;28;20095;-72
2024/03/01 08:13:38;;;;;;;47.80;26.67;;;7.30;99.90;;;;;;5021195;28;20097;-72
2024/03/01 08:16:08;;;;;;;54.20;26.42;;;7.50;99.90;;;;;;5011061;28;20022;-70
2024/03/01 08:18:37;;;;;;;45.92;26.30;;;7.70;99.90;;;;;;5026296;28;20362;-72
2024/03/01 08:21:07;;;;;;;46.80;25.60;;;7.70;99.90;;;;;;5016054;28;20049;-70
2024/03/01 08:23:38;;;;;;;45.20;26.00;;;7.70;99.90;;;;;;5006320;28;20104;-69
2024/03/01 08:26:09;;;;;;;41.75;25.15;;;7.70;99.90;;;;;;5011260;28;20026;-70
2024/03/01 08:28:34;;;;;;;44.60;24.83;;;7.80;99.90;;;;;;5012041;28;20390;-69
2024/03/01 08:31:03;;;;;;;52.58;28.23;;;7.90;99.90;;;;;;5009375;28;20063;-71
2024/03/01 08:33:32;;;;;;;41.30;24.88;;;7.90;99.90;;;;;;5011992;28;20099;-70
2024/03/01 08:35:58;;;;;;;51.65;27.38;;;8.00;99.90;;;;;;5009939;28;20343;-70
2024/03/01 08:38:39;;;;;;;48.95;27.17;;;8.00;99.90;;;;;;5009009;28;20029;-71
2024/03/01 08:41:08;;;;;;;48.65;26.83;;;8.10;99.90;;;;;;5009828;28;20123;-70
2024/03/01 08:43:37;;;;;;;51.53;26.08;;;8.20;99.90;;;;;;5011915;28;20025;-70
2024/03/01 08:46:04;;;;;;;46.35;25.25;;;8.20;99.90;;;;;;5003035;28;20037;-70
2024/03/01 08:48:33;;;;;;;49.35;27.10;;;8.30;99.90;;;;;;5011286;28;20201;-70
2024/03/01 08:51:00;;;;;;;47.38;25.98;;;8.40;99.90;;;;;;5016597;28;20032;-71
2024/03/01 08:53:40;;;;;;;47.33;25.20;;;8.40;99.90;;;;;;5010234;28;20480;-70
2024/03/01 08:56:08;;;;;;;50.08;25.75;;;8.40;99.90;;;;;;5002094;28;20107;-69
2024/03/01 08:58:36;;;;;;;47.50;26.15;;;8.40;99.90;;;;;;5010253;28;20555;-70
2024/03/01 09:01:02;;;;;;;46.33;25.80;;;8.40;99.90;;;;;;5010043;28;20455;-71
2024/03/01 09:03:30;;;;;;;43.53;24.92;;;8.50;99.90;;;;;;5011220;28;20032;-71
2024/03/01 09:05:57;;;;;;;42.50;24.65;;;8.50;99.90;;;;;;5010772;28;20026;-71
2024/03/01 09:08:29;;;;;;;38.05;21.90;;;8.60;99.90;;;;;;5010246;28;20038;-70
2024/03/01 09:10:57;;;;;;;38.42;20.02;;;8.70;99.90;;;;;;5010504;28;20034;-71
2024/03/01 09:13:24;;;;;;;29.90;18.92;;;8.70;99.90;;;;;;5009760;28;20022;-70
2024/03/01 09:15:50;;;;;;;29.33;15.52;;;8.80;99.90;;;;;;4991076;28;20129;-70
2024/03/01 09:18:25;;;;;;;23.23;12.60;;;8.90;99.90;;;;;;5009107;28;20112;-71
2024/03/01 09:20:51;;;;;;;22.02;12.38;;;9.00;99.90;;;;;;5008119;28;20048;-70
2024/03/01 09:23:16;;;;;;;22.80;12.65;;;9.10;99.90;;;;;;5006203;28;20459;-71
2024/03/01 09:25:58;;;;;;;20.95;11.40;;;9.20;99.90;;;;;;5010304;28;20410;-70
2024/03/01 09:28:24;;;;;;;17.65;11.13;;;9.30;99.90;;;;;;4999605;28;20022;-72
2024/03/01 09:30:52;;;;;;;16.98;10.90;;;9.50;99.90;;;;;;5009513;28;20065;-69
2024/03/01 09:33:22;;;;;;;17.77;10.70;;;9.60;99.90;;;;;;5010439;28;20141;-70
2024/03/01 09:35:50;;;;;;;16.67;10.18;;;9.60;99.90;;;;;;5010215;28;20017;-69
2024/03/01 09:38:17;;;;;;;16.40;9.93;;;9.70;99.90;;;;;;5007936;28;20057;-70
2024/03/01 09:41:03;;;;;;;17.20;10.05;;;9.60;99.90;;;;;;5008973;28;20045;-70
2024/03/01 09:43:46;;;;;;;14.57;9.35;;;9.50;99.90;;;;;;5009016;28;20025;-70
2024/03/01 09:46:46;;;;;;;15.63;9.70;;;9.30;99.90;;;;;;5010046;28;20030;-70
2024/03/01 09:49:49;;;;;;;16.20;9.52;;;9.20;99.90;;;;;;5018784;28;20340;-70
2024/03/01 09:52:40;;;;;;;13.88;8.45;;;9.00;99.90;;;;;;5003037;28;20481;-70
2024/03/01 09:55:14;;;;;;;16.17;9.57;;;8.90;99.90;;;;;;5009043;28;20156;-70
2024/03/01 09:57:58;;;;;;;14.48;8.93;;;8.80;99.90;;;;;;5007421;28;20018;-71
2024/03/01 10:00:32;;;;;;;17.55;9.73;;;8.70;99.90;;;;;;5011387;28;20022;-71
2024/03/01 10:03:09;;;;;;;15.93;9.15;;;8.70;99.90;;;;;;5008309;28;20442;-69
2024/03/01 10:05:44;;;;;;;15.10;8.70;;;8.60;99.90;;;;;;5008746;28;20024;-70
2024/03/01 10:08:31;;;;;;;16.63;8.98;;;8.60;99.90;;;;;;5001075;28;20547;-70
2024/03/01 10:11:21;;;;;;;15.50;9.68;;;8.50;99.90;;;;;;5009053;28;20038;-69
2024/03/01 10:14:05;;;;;;;17.83;8.75;;;8.60;99.90;;;;;;5010030;28;20018;-69
2024/03/01 10:16:57;;;;;;;14.60;8.75;;;8.50;99.90;;;;;;5009387;28;20018;-69
2024/03/01 10:19:23;;;;;;;17.10;9.43;;;8.50;99.90;;;;;;5014211;28;20026;-70
2024/03/01 10:22:06;;;;;;;17.88;9.40;;;8.40;99.90;;;;;;5014396;28;20101;-70
2024/03/01 10:24:54;;;;;;;17.77;8.80;;;8.40;99.90;;;;;;5003740;28;20048;-70
2024/03/01 10:27:28;;;;;;;14.85;9.35;;;8.30;99.90;;;;;;5009149;28;20032;-70
2024/03/01 10:30:09;;;;;;;13.40;8.32;;;8.50;99.90;;;;;;5010643;28;20104;-69
2024/03/01 10:33:01;;;;;;;12.77;7.78;;;8.60;99.90;;;;;;4999898;28;20033;-70
2024/03/01 10:35:44;;;;;;;14.52;7.60;;;8.70;99.90;;;;;;4982610;28;20033;-69
2024/03/01 10:38:29;;;;;;;15.70;7.47;;;8.80;99.90;;;;;;5007006;28;20461;-68
2024/03/01 10:41:14;;;;;;;17.52;8.52;;;8.90;99.90;;;;;;5007756;28;20034;-68
2024/03/01 10:44:01;;;;;;;15.95;7.85;;;9.10;99.90;;;;;;5009868;28;20116;-68
2024/03/01 10:46:48;;;;;;;11.43;7.22;;;9.20;99.90;;;;;;5008800;28;20108;-69
2024/03/01 10:49:27;;;;;;;13.18;7.97;;;9.30;99.90;;;;;;5002025;28;20018;-69
2024/03/01 10:52:06;;;;;;;14.37;8.50;;;9.30;99.90;;;;;;4999486;28;20449;-69
2024/03/01 10:54:35;;;;;;;14.07;8.55;;;9.40;99.90;;;;;;5005812;28;20317;-69
2024/03/01 10:57:03;;;;;;;14.35;8.93;;;9.50;99.90;;;;;;5008483;28;20391;-70
2024/03/01 10:59:40;;;;;;;20.10;12.00;;;9.50;99.90;;;;;;5008245;28;20025;-70
2024/03/01 11:02:22;;;;;;;18.85;12.23;;;9.60;99.90;;;;;;5007230;28;20545;-69
2024/03/01 11:05:06;;;;;;;21.48;12.02;;;9.60;99.90;;;;;;5010332;28;20087;-70
2024/03/01 11:08:07;;;;;;;23.30;10.40;;;9.60;99.90;;;;;;5009312;28;20014;-70
2024/03/01 11:10:57;;;;;;;17.85;9.15;;;9.80;99.90;;;;;;5010217;28;20065;-71
2024/03/01 11:13:23;;;;;;;;;;;9.90;99.90;;;;;;5008057;28;20367;-71
2024/03/01 11:15:50;;;;;;;13.45;8.13;;;10.10;99.90;;;;;;5012703;28;19971;-70
2024/03/01 11:18:22;;;;;;;15.00;7.95;;;10.30;99.90;;;;;;5002060;28;20018;-70
2024/03/01 11:21:02;;;;;;;12.88;7.45;;;10.40;99.90;;;;;;5011591;28;20113;-70
2024/03/01 11:23:58;;;;;;;12.82;7.22;;;10.40;99.90;;;;;;5008275;28;20040;-70
2024/03/01 11:26:44;;;;;;;15.02;7.85;;;10.50;99.90;;;;;;4985731;28;20062;-73
2024/03/01 11:29:28;;;;;;;10.85;7.35;;;10.60;99.90;;;;;;5001030;28;20022;-70
2024/03/01 11:32:02;;;;;;;12.02;7.25;;;10.70;99.90;;;;;;5012848;28;20049;-70
2024/03/01 11:34:41;;;;;;;11.15;7.40;;;10.70;99.90;;;;;;5012151;28;20121;-73
2024/03/01 11:37:25;;;;;;;10.65;6.95;;;10.70;99.90;;;;;;5008986;28;20100;-70
2024/03/01 11:40:03;;;;;;;9.77;6.85;;;10.80;99.90;;;;;;5011076;28;20022;-73
2024/03/01 11:42:50;;;;;;;7.95;6.10;;;11.00;99.90;;;;;;5022897;28;20026;-73
2024/03/01 11:45:21;;;;;;;9.20;6.28;;;11.20;99.90;;;;;;5011993;28;20010;-73
2024/03/01 11:48:00;;;;;;;11.05;6.65;;;11.30;99.90;;;;;;5012996;28;20371;-71
2024/03/01 11:50:48;;;;;;;10.75;6.97;;;11.40;99.90;;;;;;5007216;28;20477;-73
2024/03/01 11:54:10;;;;;;;10.02;6.63;;;11.50;99.90;;;;;;5010078;28;20491;-71
2024/03/01 11:56:59;;;;;;;10.65;6.82;;;11.60;99.90;;;;;;4951355;28;20488;-72
2024/03/01 11:59:29;;;;;;;10.00;6.10;;;11.90;99.90;;;;;;4943245;28;20282;-72
2024/03/01 12:02:08;;;;;;;9.55;5.90;;;12.10;99.90;;;;;;4998754;28;20125;-72
2024/03/01 12:05:25;;;;;;;9.65;6.60;;;12.20;99.90;;;;;;5014920;28;20028;-72
2024/03/01 12:08:11;;;;;;;9.52;5.60;;;12.30;99.90;;;;;;4975047;28;20034;-72
2024/03/01 12:11:04;;;;;;;9.65;6.47;;;12.40;99.90;;;;;;5007671;28;20045;-70
2024/03/01 12:13:41;;;;;;;8.43;6.38;;;12.50;99.90;;;;;;5002989;28;20497;-73
2024/03/01 12:16:20;;;;;;;10.57;6.78;;;12.60;99.90;;;;;;5011634;28;20057;-71
2024/03/01 12:18:56;;;;;;;9.38;6.38;;;12.70;99.90;;;;;;5012210;28;20021;-72
2024/03/01 12:21:43;;;;;;;9.68;5.75;;;12.70;99.90;;;;;;4991786;28;20033;-72
2024/03/01 12:24:17;;;;;;;8.13;6.05;;;12.90;99.90;;;;;;4993294;28;20068;-72
2024/03/01 12:26:52;;;;;;;7.95;5.90;;;;;;;;;;5002976;28;20030;-71
2024/03/01 12:29:34;;;;;;;7.72;5.10;;;;;;;;;;5020164;28;20030;-71
2024/03/01 12:32:26;;;;;;;9.48;5.45;;;;;;;;;;5009552;28;20018;-72
2024/03/01 12:34:53;;;;;;;8.13;6.13;;;;;;;;;;5005762;28;20419;-72
2024/03/01 12:37:22;;;;;;;10.32;5.95;;;;;;;;;;5009498;28;20459;-72
2024/03/01 12:39:54;;;;;;;8.13;5.78;;;;;;;;;;5009855;28;20022;-68
2024/03/01 12:42:28;;;;;;;7.63;5.35;;;;;;;;;;5009975;28;20117;-71
2024/03/01 12:45:00;;;;;;;8.88;6.35;;;;;;;;;;5008285;28;20018;-70
2024/03/01 12:47:36;;;;;;;7.30;5.70;;;;;;;;;;5009096;28;20068;-71
2024/03/01 12:50:19;;;;;;;8.80;5.47;;;;;;;;;;5010458;28;20458;-69
2024/03/01 12:52:45;;;;;;;8.73;6.30;;;;;;;;;;5006482;28;20065;-69
2024/03/01 12:55:10;;;;;;;8.60;5.40;;;;;;;;;;5007109;28;20423;-70
2024/03/01 12:57:49;;;;;;;7.20;5.05;;;;;;;;;;5010489;28;20028;-69